createdAt,value
2018-06-23T00:00:59.905Z,4.07
2018-06-23T00:03:28.889Z,3.30
2018-06-23T00:05:57.843Z,4.47
2018-06-23T00:08:27.002Z,4.20
2018-06-23T00:10:55.988Z,3.23
2018-06-23T00:13:24.959Z,3.13
2018-06-23T00:15:53.942Z,3.47
2018-06-23T00:18:22.910Z,3.20
2018-06-23T00:20:51.880Z,3.30
2018-06-23T00:23:20.927Z,3.10
2018-06-23T00:25:55.218Z,3.13
2018-06-23T00:28:24.182Z,3.13
2018-06-23T00:30:53.164Z,3.00
2018-06-23T00:33:22.417Z,3.90
2018-06-23T00:35:51.397Z,3.27
2018-06-23T00:38:20.561Z,2.27
2018-06-23T00:40:49.580Z,3.00
2018-06-23T00:43:18.576Z,3.50
2018-06-23T00:45:47.581Z,2.67
2018-06-23T00:48:16.546Z,3.27
2018-06-23T00:50:45.547Z,3.20
2018-06-23T00:53:15.011Z,3.27
2018-06-23T00:55:43.970Z,2.87
2018-06-23T00:58:13.048Z,3.30
2018-06-23T01:00:42.048Z,3.13
2018-06-23T01:03:11.046Z,3.67
2018-06-23T01:05:40.284Z,3.07
2018-06-23T01:08:09.326Z,3.87
2018-06-23T01:10:38.332Z,3.73
2018-06-23T01:13:07.439Z,2.63
2018-06-23T01:15:36.666Z,3.00
2018-06-23T01:18:05.645Z,2.97
2018-06-23T01:20:34.628Z,2.70
2018-06-23T01:23:03.609Z,2.60
2018-06-23T01:25:32.585Z,2.73
2018-06-23T01:28:01.571Z,2.50
2018-06-23T01:30:30.611Z,3.13
2018-06-23T01:32:59.724Z,3.47
2018-06-23T01:35:28.720Z,3.03
2018-06-23T01:37:57.706Z,3.17
2018-06-23T01:40:26.821Z,2.93
2018-06-23T01:42:55.846Z,3.83
2018-06-23T01:45:24.876Z,3.33
2018-06-23T01:47:53.899Z,4.33
2018-06-23T01:50:22.847Z,2.83
2018-06-23T01:52:51.825Z,3.17
2018-06-23T01:55:20.891Z,2.30
2018-06-23T01:57:49.916Z,3.23
2018-06-23T02:00:18.933Z,3.10
2018-06-23T02:02:47.973Z,3.33
2018-06-23T02:05:16.960Z,3.20
2018-06-23T02:07:45.981Z,3.10
2018-06-23T02:10:14.976Z,2.87
2018-06-23T02:12:44.029Z,2.80
2018-06-23T02:15:12.991Z,2.70
2018-06-23T02:17:47.454Z,3.43
2018-06-23T02:20:21.720Z,2.83
2018-06-23T02:22:56.039Z,2.83
2018-06-23T02:25:30.353Z,3.37
2018-06-23T02:28:04.756Z,3.40
2018-06-23T02:30:39.217Z,3.40
2018-06-23T02:33:14.742Z,2.80
2018-06-23T02:35:43.987Z,2.87
2018-06-23T02:38:13.069Z,3.00
2018-06-23T02:40:42.107Z,3.37
2018-06-23T02:43:11.101Z,3.03
2018-06-23T02:45:40.071Z,4.37
2018-06-23T02:48:09.091Z,3.00
2018-06-23T02:50:38.081Z,2.67
2018-06-23T02:53:07.057Z,3.03
2018-06-23T02:55:36.026Z,2.10
2018-06-23T02:58:05.181Z,2.57
2018-06-23T03:00:34.156Z,3.03
2018-06-23T03:03:03.139Z,2.40
2018-06-23T03:05:32.141Z,3.50
2018-06-23T03:08:01.122Z,2.67
2018-06-23T03:10:30.150Z,2.50
2018-06-23T03:12:59.135Z,2.23
2018-06-23T03:15:31.558Z,3.10
2018-06-23T03:18:00.719Z,2.27
2018-06-23T03:20:31.194Z,3.20
2018-06-23T03:23:00.357Z,3.47
2018-06-23T03:25:29.700Z,2.60
2018-06-23T03:27:58.682Z,3.20
2018-06-23T03:30:27.695Z,3.37
2018-06-23T03:32:57.872Z,3.27
2018-06-23T03:35:26.878Z,2.50
2018-06-23T03:37:55.999Z,3.53
2018-06-23T03:40:25.112Z,3.00
2018-06-23T03:42:54.107Z,3.40
2018-06-23T03:45:23.239Z,3.23
2018-06-23T03:47:52.342Z,3.20
2018-06-23T03:50:21.328Z,3.03
2018-06-23T03:52:50.351Z,2.73
2018-06-23T03:55:20.878Z,2.80
2018-06-23T03:57:49.859Z,2.30
2018-06-23T04:00:18.827Z,2.30
2018-06-23T04:02:47.820Z,2.47
2018-06-23T04:05:16.895Z,3.40
2018-06-23T04:07:45.864Z,3.40
2018-06-23T04:10:14.917Z,2.73
2018-06-23T04:12:43.939Z,3.70
2018-06-23T04:15:12.957Z,2.07
2018-06-23T04:17:43.120Z,2.27
2018-06-23T04:20:12.196Z,2.40
2018-06-23T04:22:41.213Z,3.00
2018-06-23T04:25:10.243Z,3.33
2018-06-23T04:27:39.217Z,2.50
2018-06-23T04:30:08.226Z,2.60
2018-06-23T04:32:37.193Z,2.27
2018-06-23T04:35:07.362Z,2.47
2018-06-23T04:37:36.401Z,2.17
2018-06-23T04:40:05.438Z,2.30
2018-06-23T04:42:34.408Z,2.73
2018-06-23T04:45:03.419Z,2.47
2018-06-23T04:47:32.421Z,3.07
2018-06-23T04:50:01.404Z,2.87
2018-06-23T04:52:30.408Z,2.30
2018-06-23T04:55:01.143Z,2.73
2018-06-23T04:57:30.107Z,2.30
2018-06-23T04:59:59.336Z,2.40
2018-06-23T05:02:28.735Z,2.97
2018-06-23T05:04:57.893Z,2.43
2018-06-23T05:07:26.856Z,2.90
2018-06-23T05:09:55.845Z,2.60
2018-06-23T05:12:24.829Z,2.80
2018-06-23T05:14:53.800Z,2.27
2018-06-23T05:17:22.881Z,2.30
2018-06-23T05:19:52.184Z,2.73
2018-06-23T05:22:21.442Z,3.87
2018-06-23T05:24:51.959Z,4.23
2018-06-23T05:27:20.980Z,2.60
2018-06-23T05:29:50.424Z,2.70
2018-06-23T05:32:21.332Z,2.87
2018-06-23T05:34:50.391Z,2.73
2018-06-23T05:37:19.354Z,2.23
2018-06-23T05:39:48.331Z,2.60
2018-06-23T05:42:17.321Z,4.33
2018-06-23T05:44:46.364Z,2.57
2018-06-23T05:47:15.386Z,2.90
2018-06-23T05:49:44.508Z,2.20
2018-06-23T05:52:13.890Z,2.20
2018-06-23T05:54:43.083Z,2.67
2018-06-23T05:57:12.283Z,2.77
2018-06-23T05:59:41.445Z,2.90
2018-06-23T06:02:12.619Z,3.00
2018-06-23T06:04:42.126Z,2.37
2018-06-23T06:07:12.033Z,2.13
2018-06-23T06:09:41.055Z,2.40
2018-06-23T06:12:10.076Z,3.20
2018-06-23T06:14:39.050Z,2.47
2018-06-23T06:17:28.944Z,3.23
2018-06-23T06:20:00.112Z,2.80
2018-06-23T06:22:33.009Z,2.40
2018-06-23T06:25:02.114Z,2.10
2018-06-23T06:27:31.656Z,2.87
2018-06-23T06:30:00.709Z,3.10
2018-06-23T06:32:30.064Z,2.50
2018-06-23T06:34:59.222Z,3.17
2018-06-23T06:37:28.167Z,2.67
2018-06-23T06:39:57.428Z,2.93
2018-06-23T06:42:26.453Z,1.80
2018-06-23T06:44:55.724Z,2.30
2018-06-23T06:47:24.710Z,3.27
2018-06-23T06:49:53.725Z,2.83
2018-06-23T06:52:22.729Z,2.23
2018-06-23T06:54:51.901Z,2.27
2018-06-23T06:57:21.378Z,3.03
2018-06-23T06:59:50.448Z,2.83
2018-06-23T07:02:19.453Z,2.33
2018-06-23T07:04:48.489Z,3.03
2018-06-23T07:07:17.485Z,2.43
2018-06-23T07:09:46.574Z,1.90
2018-06-23T07:12:15.581Z,2.93
2018-06-23T07:14:44.665Z,2.20
2018-06-23T07:17:13.683Z,2.27
2018-06-23T07:19:42.952Z,2.93
2018-06-23T07:22:12.591Z,1.97
2018-06-23T07:24:41.686Z,3.03
2018-06-23T07:27:11.647Z,2.10
2018-06-23T07:29:40.660Z,2.10
2018-06-23T07:32:09.744Z,3.10
2018-06-23T07:34:38.779Z,2.30
2018-06-23T07:37:07.742Z,2.60
2018-06-23T07:39:36.745Z,2.57
2018-06-23T07:42:06.486Z,1.90
2018-06-23T07:44:35.648Z,2.07
2018-06-23T07:47:04.641Z,2.27
2018-06-23T07:49:33.605Z,2.50
2018-06-23T07:52:02.622Z,1.87
2018-06-23T07:54:31.634Z,2.20
2018-06-23T07:57:00.663Z,2.60
2018-06-23T07:59:29.624Z,2.27
2018-06-23T08:01:58.907Z,2.30
2018-06-23T08:04:28.922Z,2.20
2018-06-23T08:06:58.000Z,2.83
2018-06-23T08:09:27.091Z,2.40
2018-06-23T08:11:57.232Z,2.07
2018-06-23T08:14:26.264Z,3.03
2018-06-23T08:16:55.712Z,2.93
2018-06-23T08:19:24.670Z,3.77
2018-06-23T08:21:54.249Z,3.30
2018-06-23T08:24:23.306Z,4.50
2018-06-23T08:26:52.290Z,3.60
2018-06-23T08:29:21.285Z,4.97
2018-06-23T08:31:50.313Z,3.40
2018-06-23T08:34:19.335Z,3.23
2018-06-23T08:36:48.304Z,3.07
2018-06-23T08:39:17.608Z,4.10
2018-06-23T08:41:46.623Z,3.97
2018-06-23T08:44:15.697Z,4.13
2018-06-23T08:46:46.278Z,3.40
2018-06-23T08:49:15.293Z,3.33
2018-06-23T08:51:46.337Z,3.93
2018-06-23T08:54:15.339Z,4.20
2018-06-23T08:56:44.323Z,4.20
2018-06-23T08:59:13.839Z,4.40
2018-06-23T09:01:42.938Z,4.20
2018-06-23T09:04:11.948Z,4.03
2018-06-23T09:06:41.446Z,3.57
2018-06-23T09:09:11.130Z,2.93
2018-06-23T09:11:40.558Z,3.37
2018-06-23T09:14:09.775Z,3.67
2018-06-23T09:16:38.827Z,4.37
2018-06-23T09:19:07.845Z,4.87
2018-06-23T09:21:36.931Z,4.43
2018-06-23T09:24:05.916Z,5.30
2018-06-23T09:26:36.286Z,5.90
2018-06-23T09:29:05.260Z,4.93
2018-06-23T09:31:34.731Z,4.90
2018-06-23T09:34:03.942Z,5.43
2018-06-23T09:36:33.022Z,5.37
2018-06-23T09:39:02.075Z,5.00
2018-06-23T09:41:31.135Z,4.03
2018-06-23T09:44:00.135Z,4.10
2018-06-23T09:46:29.121Z,4.70
2018-06-23T09:48:58.075Z,5.23
2018-06-23T09:51:28.667Z,4.57
2018-06-23T09:53:57.633Z,5.23
2018-06-23T09:56:26.664Z,5.20
2018-06-23T09:58:55.618Z,3.60
2018-06-23T10:01:24.592Z,3.90
2018-06-23T10:03:53.579Z,4.27
2018-06-23T10:06:22.663Z,4.67
2018-06-23T10:08:51.666Z,5.50
2018-06-23T10:11:20.714Z,5.47
2018-06-23T10:13:49.845Z,4.33
2018-06-23T10:16:18.882Z,5.20
2018-06-23T10:18:47.897Z,4.37
2018-06-23T10:21:16.864Z,4.50
2018-06-23T10:23:45.846Z,4.03
2018-06-23T10:26:14.852Z,4.03
2018-06-23T10:28:43.904Z,4.93
2018-06-23T10:31:12.944Z,4.17
2018-06-23T10:33:42.018Z,4.73
2018-06-23T10:36:11.022Z,4.47
2018-06-23T10:38:40.096Z,5.47
2018-06-23T10:41:09.025Z,6.30
2018-06-23T10:43:38.095Z,5.37
2018-06-23T10:46:07.114Z,4.93
2018-06-23T10:48:36.114Z,3.27
2018-06-23T10:51:06.095Z,4.00
2018-06-23T10:53:35.230Z,3.07
2018-06-23T10:56:04.432Z,2.77
2018-06-23T10:58:33.413Z,3.73
2018-06-23T11:01:02.444Z,3.50
2018-06-23T11:03:31.473Z,4.70
2018-06-23T11:06:00.591Z,5.13
2018-06-23T11:08:29.574Z,3.60
2018-06-23T11:10:58.580Z,4.33
2018-06-23T11:13:27.732Z,3.63
2018-06-23T11:15:56.794Z,3.20
2018-06-23T11:18:25.747Z,3.80
2018-06-23T11:20:54.782Z,4.10
2018-06-23T11:23:23.752Z,3.70
2018-06-23T11:25:52.731Z,3.80
2018-06-23T11:28:21.692Z,3.43
2018-06-23T11:30:50.732Z,3.60
2018-06-23T11:33:19.688Z,4.40
2018-06-23T11:35:48.691Z,4.57
2018-06-23T11:38:17.745Z,3.80
2018-06-23T11:40:46.770Z,4.63
2018-06-23T11:43:15.735Z,3.87
2018-06-23T11:45:44.708Z,4.87
2018-06-23T11:48:13.678Z,5.03
2018-06-23T11:50:42.649Z,4.70
2018-06-23T11:53:11.679Z,5.03
2018-06-23T11:55:40.620Z,5.73
2018-06-23T11:58:09.583Z,5.93
2018-06-23T12:00:38.549Z,5.80
2018-06-23T12:03:07.596Z,6.37
2018-06-23T12:05:36.531Z,6.33
2018-06-23T12:08:05.637Z,6.03
2018-06-23T12:10:34.741Z,6.87
2018-06-23T12:13:03.839Z,6.77
2018-06-23T12:15:32.807Z,7.17
2018-06-23T12:18:01.859Z,6.67
2018-06-23T12:20:30.896Z,5.70
2018-06-23T12:22:59.891Z,6.17
2018-06-23T12:25:29.155Z,6.33
2018-06-23T12:27:58.342Z,5.10
2018-06-23T12:30:27.334Z,5.57
2018-06-23T12:32:56.332Z,4.60
2018-06-23T12:35:25.339Z,5.80
2018-06-23T12:37:54.325Z,5.37
2018-06-23T12:40:23.299Z,5.27
2018-06-23T12:42:52.372Z,4.23
2018-06-23T12:45:21.367Z,4.87
2018-06-23T12:47:50.377Z,4.90
2018-06-23T12:50:19.387Z,5.03
2018-06-23T12:52:48.516Z,5.33
2018-06-23T12:55:20.121Z,5.30
2018-06-23T12:57:49.200Z,5.33
2018-06-23T13:00:18.168Z,5.40
2018-06-23T13:02:47.162Z,4.80
2018-06-23T13:05:16.204Z,5.33
2018-06-23T13:07:45.218Z,5.00
2018-06-23T13:10:15.397Z,4.40
2018-06-23T13:12:44.502Z,5.37
2018-06-23T13:15:13.536Z,4.00
2018-06-23T13:17:42.581Z,4.03
2018-06-23T13:20:11.633Z,3.80
2018-06-23T13:22:40.650Z,4.17
2018-06-23T13:25:09.677Z,3.27
2018-06-23T13:27:38.658Z,4.20
2018-06-23T13:30:07.634Z,4.43
2018-06-23T13:32:36.644Z,3.83
2018-06-23T13:35:05.644Z,3.40
2018-06-23T13:37:34.669Z,3.90
2018-06-23T13:40:03.653Z,3.50
2018-06-23T13:42:33.565Z,2.90
2018-06-23T13:45:02.769Z,3.00
2018-06-23T13:47:32.025Z,3.97
2018-06-23T13:50:01.016Z,3.07
2018-06-23T13:52:30.324Z,2.77
2018-06-23T13:54:59.385Z,2.90
2018-06-23T13:57:28.359Z,3.07
2018-06-23T13:59:57.543Z,2.77
2018-06-23T14:02:26.618Z,2.17
2018-06-23T14:04:55.621Z,2.67
2018-06-23T14:07:24.814Z,1.63
2018-06-23T14:09:53.838Z,2.00
2018-06-23T14:12:22.803Z,2.23
2018-06-23T14:14:51.861Z,2.87
2018-06-23T14:17:20.837Z,2.20
2018-06-23T14:19:49.946Z,2.97
2018-06-23T14:22:18.956Z,3.23
2018-06-23T14:24:47.960Z,2.93
2018-06-23T14:27:17.005Z,2.90
2018-06-23T14:29:46.163Z,3.43
2018-06-23T14:32:15.451Z,3.20
2018-06-23T14:34:44.313Z,4.40
2018-06-23T14:37:13.367Z,3.63
2018-06-23T14:39:42.483Z,5.27
2018-06-23T14:42:11.470Z,4.37
2018-06-23T14:44:40.471Z,4.10
2018-06-23T14:47:09.470Z,4.53
2018-06-23T14:49:38.432Z,5.37
2018-06-23T14:52:07.490Z,4.83
2018-06-23T14:54:36.466Z,5.67
2018-06-23T14:57:05.605Z,5.57
2018-06-23T14:59:34.780Z,5.33
2018-06-23T15:02:03.724Z,5.53
2018-06-23T15:04:32.804Z,7.03
2018-06-23T15:07:01.828Z,6.10
2018-06-23T15:09:42.106Z,5.13
2018-06-23T15:12:22.732Z,4.77
2018-06-23T15:14:52.450Z,5.23
2018-06-23T15:17:21.514Z,5.37
2018-06-23T15:19:50.483Z,4.90
2018-06-23T15:22:19.510Z,4.77
2018-06-23T15:24:48.476Z,4.63
2018-06-23T15:27:17.488Z,4.00
2018-06-23T15:29:46.445Z,4.90
2018-06-23T15:32:15.439Z,4.07
2018-06-23T15:34:44.442Z,4.63
2018-06-23T15:37:13.402Z,4.67
2018-06-23T15:39:42.429Z,4.27
2018-06-23T15:42:11.479Z,4.77
2018-06-23T15:44:40.542Z,4.07
2018-06-23T15:47:09.600Z,4.10
2018-06-23T15:49:38.570Z,4.63
2018-06-23T15:52:07.574Z,4.33
2018-06-23T15:54:36.552Z,4.50
2018-06-23T15:57:05.725Z,6.60
2018-06-23T15:59:34.791Z,6.73
2018-06-23T16:02:03.882Z,6.83
2018-06-23T16:04:33.041Z,7.67
2018-06-23T16:07:02.511Z,7.20
2018-06-23T16:09:31.556Z,7.37
2018-06-23T16:12:00.535Z,6.87
2018-06-23T16:14:29.554Z,6.07
2018-06-23T16:16:58.557Z,5.30
2018-06-23T16:19:27.580Z,5.80
2018-06-23T16:21:56.548Z,6.50
2018-06-23T16:24:25.524Z,6.20
2018-06-23T16:26:54.487Z,6.73
2018-06-23T16:29:23.543Z,20.07
2018-06-23T16:31:52.812Z,27.30
2018-06-23T16:34:21.810Z,10.30
2018-06-23T16:36:50.849Z,11.50
2018-06-23T16:39:19.932Z,7.80
2018-06-23T16:41:48.933Z,12.00
2018-06-23T16:44:17.921Z,32.43
2018-06-23T16:46:47.128Z,8.10
2018-06-23T16:49:16.120Z,16.93
2018-06-23T16:51:45.113Z,17.03
2018-06-23T16:54:14.131Z,7.77
2018-06-23T16:56:43.243Z,8.03
2018-06-23T16:59:12.223Z,12.30
2018-06-23T17:01:41.236Z,11.13
2018-06-23T17:04:10.279Z,8.47
2018-06-23T17:06:39.351Z,7.37
2018-06-23T17:09:09.697Z,7.90
2018-06-23T17:11:39.096Z,6.70
2018-06-23T17:14:08.385Z,8.10
2018-06-23T17:16:37.524Z,8.33
2018-06-23T17:19:06.797Z,9.47
2018-06-23T17:21:36.087Z,7.80
2018-06-23T17:24:05.412Z,9.20
2018-06-23T17:26:34.770Z,8.33
2018-06-23T17:29:03.836Z,7.40
2018-06-23T17:31:32.925Z,13.37
2018-06-23T17:34:01.935Z,7.73
2018-06-23T17:36:30.987Z,8.83
2018-06-23T17:39:00.160Z,7.67
2018-06-23T17:41:29.224Z,8.47
2018-06-23T17:43:58.261Z,28.33
2018-06-23T17:46:27.267Z,11.23
2018-06-23T17:48:56.448Z,9.47
2018-06-23T17:51:25.447Z,9.43
2018-06-23T17:53:55.160Z,6.87
2018-06-23T17:56:24.480Z,5.93
2018-06-23T17:58:53.605Z,6.07
2018-06-23T18:01:22.637Z,7.90
2018-06-23T18:03:51.673Z,7.30
2018-06-23T18:06:20.735Z,7.03
2018-06-23T18:08:49.707Z,6.67
2018-06-23T18:11:18.764Z,10.37
2018-06-23T18:13:47.798Z,7.83
2018-06-23T18:16:16.879Z,6.83
2018-06-23T18:18:45.903Z,7.93
2018-06-23T18:21:15.047Z,7.80
2018-06-23T18:23:44.065Z,8.13
2018-06-23T18:26:13.174Z,5.10
2018-06-23T18:28:42.193Z,6.47
2018-06-23T18:31:11.169Z,5.73
2018-06-23T18:33:40.151Z,6.37
2018-06-23T18:36:09.144Z,6.57
2018-06-23T18:38:38.123Z,5.43
2018-06-23T18:41:07.086Z,5.47
2018-06-23T18:43:36.144Z,7.47
2018-06-23T18:46:05.216Z,5.50
2018-06-23T18:48:34.263Z,5.47
2018-06-23T18:51:03.392Z,5.27
2018-06-23T18:53:32.382Z,5.50
2018-06-23T18:56:01.387Z,5.53
2018-06-23T18:58:30.402Z,6.23
2018-06-23T19:00:59.517Z,6.30
2018-06-23T19:03:28.664Z,6.53
2018-06-23T19:05:59.107Z,5.67
2018-06-23T19:08:28.081Z,5.07
2018-06-23T19:10:57.159Z,7.17
2018-06-23T19:13:26.138Z,5.03
2018-06-23T19:15:55.155Z,5.20
2018-06-23T19:18:24.150Z,4.33
2018-06-23T19:20:53.158Z,5.00
2018-06-23T19:23:22.504Z,5.97
2018-06-23T19:25:51.518Z,4.67
2018-06-23T19:28:20.510Z,4.50
2018-06-23T19:30:49.646Z,5.30
2018-06-23T19:33:18.743Z,5.90
2018-06-23T19:35:47.804Z,5.17
2018-06-23T19:38:17.079Z,4.20
2018-06-23T19:40:46.108Z,4.87
2018-06-23T19:43:15.227Z,4.90
2018-06-23T19:45:44.278Z,4.40
2018-06-23T19:48:13.262Z,6.17
2018-06-23T19:50:42.311Z,4.80
2018-06-23T19:53:11.339Z,6.10
2018-06-23T19:55:40.323Z,5.80
2018-06-23T19:58:09.369Z,6.20
2018-06-23T20:00:38.875Z,5.73
2018-06-23T20:03:08.360Z,5.53
2018-06-23T20:05:37.402Z,4.83
2018-06-23T20:08:06.418Z,5.40
2018-06-23T20:10:35.520Z,5.03
2018-06-23T20:13:04.838Z,4.63
2018-06-23T20:15:34.673Z,5.73
2018-06-23T20:18:03.756Z,5.70
2018-06-23T20:20:33.222Z,5.73
2018-06-23T20:23:02.350Z,6.20
2018-06-23T20:25:31.539Z,5.97
2018-06-23T20:28:00.617Z,5.70
2018-06-23T20:30:29.650Z,5.30
2018-06-23T20:32:58.710Z,5.70
2018-06-23T20:35:27.801Z,5.20
2018-06-23T20:37:56.874Z,16.00
2018-06-23T20:40:25.971Z,5.77
2018-06-23T20:42:54.977Z,5.67
2018-06-23T20:45:23.990Z,5.53
2018-06-23T20:47:53.003Z,5.53
2018-06-23T20:50:22.097Z,5.23
2018-06-23T20:52:51.151Z,6.37
2018-06-23T20:55:20.204Z,5.87
2018-06-23T20:57:49.243Z,5.53
2018-06-23T21:00:18.298Z,7.30
2018-06-23T21:02:47.672Z,9.77
2018-06-23T21:05:16.694Z,9.83
2018-06-23T21:07:45.777Z,6.47
2018-06-23T21:10:26.947Z,7.37
2018-06-23T21:12:56.089Z,7.17
2018-06-23T21:15:25.100Z,8.17
2018-06-23T21:17:54.115Z,6.70
2018-06-23T21:20:23.522Z,7.53
2018-06-23T21:22:52.512Z,9.53
2018-06-23T21:25:21.513Z,6.13
2018-06-23T21:27:50.556Z,8.93
2018-06-23T21:30:19.593Z,7.93
2018-06-23T21:32:48.663Z,7.87
2018-06-23T21:35:17.754Z,8.67
2018-06-23T21:37:46.784Z,11.70
2018-06-23T21:40:15.854Z,9.10
2018-06-23T21:42:44.981Z,8.03
2018-06-23T21:45:14.075Z,12.67
2018-06-23T21:47:43.248Z,13.50
2018-06-23T21:50:12.236Z,7.97
2018-06-23T21:52:41.257Z,7.83
2018-06-23T21:55:10.245Z,10.00
2018-06-23T21:57:39.440Z,11.13
2018-06-23T22:00:12.363Z,8.03
2018-06-23T22:02:41.362Z,9.57
2018-06-23T22:05:10.349Z,7.93
2018-06-23T22:07:39.317Z,7.27
2018-06-23T22:10:08.303Z,7.53
2018-06-23T22:12:37.300Z,8.97
2018-06-23T22:15:06.274Z,9.17
2018-06-23T22:17:35.334Z,7.73
2018-06-23T22:20:04.327Z,11.73
2018-06-23T22:22:33.316Z,8.60
2018-06-23T22:25:02.429Z,8.87
2018-06-23T22:27:31.549Z,8.27
2018-06-23T22:30:00.584Z,9.33
2018-06-23T22:32:29.574Z,8.10
2018-06-23T22:34:58.550Z,8.57
2018-06-23T22:37:27.790Z,9.30
2018-06-23T22:39:56.769Z,7.80
2018-06-23T22:42:25.731Z,8.50
2018-06-23T22:44:54.795Z,8.93
2018-06-23T22:47:23.829Z,9.13
2018-06-23T22:49:52.819Z,9.40
2018-06-23T22:52:21.801Z,10.37
2018-06-23T22:54:50.875Z,9.03
2018-06-23T22:57:19.863Z,9.37
2018-06-23T22:59:48.906Z,11.07
2018-06-23T23:02:17.920Z,10.50
2018-06-23T23:04:46.923Z,10.57
2018-06-23T23:07:15.913Z,11.27
2018-06-23T23:09:44.919Z,11.70
2018-06-23T23:12:14.013Z,12.17
2018-06-23T23:14:43.032Z,12.00
2018-06-23T23:17:12.109Z,12.53
2018-06-23T23:19:41.103Z,11.77
2018-06-23T23:22:10.089Z,11.03
2018-06-23T23:24:39.090Z,10.90
2018-06-23T23:27:08.098Z,12.00
2018-06-23T23:29:37.191Z,11.87
2018-06-23T23:32:06.283Z,11.77
2018-06-23T23:34:35.262Z,10.43
2018-06-23T23:37:04.276Z,12.67
2018-06-23T23:39:33.305Z,12.57
2018-06-23T23:42:03.419Z,11.47
2018-06-23T23:44:32.544Z,11.17
2018-06-23T23:47:01.646Z,11.20
2018-06-23T23:49:30.679Z,10.90
2018-06-23T23:51:59.757Z,10.87
2018-06-23T23:54:28.709Z,12.67
2018-06-23T23:56:57.683Z,10.93
2018-06-23T23:59:26.678Z,11.60
